createdAt,value
2023-08-03T00:00:38.230Z,100.00
2023-08-03T00:03:09.277Z,100.00
2023-08-03T00:05:37.436Z,100.00
2023-08-03T00:08:05.643Z,100.00
2023-08-03T00:10:36.497Z,100.00
2023-08-03T00:13:04.204Z,100.00
2023-08-03T00:15:32.414Z,100.00
2023-08-03T00:18:01.660Z,100.00
2023-08-03T00:20:29.756Z,100.00
2023-08-03T00:22:57.757Z,100.00
2023-08-03T00:25:26.213Z,100.00
2023-08-03T00:27:54.265Z,100.00
2023-08-03T00:30:21.870Z,100.00
2023-08-03T00:32:49.515Z,100.00
2023-08-03T00:35:17.144Z,100.00
2023-08-03T00:37:45.469Z,100.00
2023-08-03T00:40:13.673Z,100.00
2023-08-03T00:42:41.310Z,100.00
2023-08-03T00:45:12.248Z,100.00
2023-08-03T00:47:40.796Z,100.00
2023-08-03T00:50:09.684Z,100.00
2023-08-03T00:52:39.801Z,100.00
2023-08-03T00:55:08.218Z,100.00
2023-08-03T00:57:35.950Z,100.00
2023-08-03T01:00:04.200Z,100.00
2023-08-03T01:02:33.657Z,100.00
2023-08-03T01:05:03.209Z,100.00
2023-08-03T01:07:31.170Z,100.00
2023-08-03T01:09:58.798Z,100.00
2023-08-03T01:12:28.697Z,100.00
2023-08-03T01:14:56.431Z,100.00
2023-08-03T01:17:25.985Z,100.00
2023-08-03T01:19:54.181Z,100.00
2023-08-03T01:22:22.833Z,100.00
2023-08-03T01:24:50.861Z,100.00
2023-08-03T01:27:18.582Z,100.00
2023-08-03T01:29:46.208Z,100.00
2023-08-03T01:32:16.764Z,100.00
2023-08-03T01:34:44.384Z,100.00
2023-08-03T01:37:12.368Z,100.00
2023-08-03T01:39:46.210Z,100.00
2023-08-03T01:42:15.017Z,100.00
2023-08-03T01:44:43.614Z,100.00
2023-08-03T01:47:11.266Z,100.00
2023-08-03T01:49:38.841Z,100.00
2023-08-03T01:52:06.631Z,100.00
2023-08-03T01:54:34.199Z,100.00
2023-08-03T01:57:01.817Z,100.00
2023-08-03T01:59:29.910Z,100.00
2023-08-03T02:01:57.690Z,100.00
2023-08-03T02:04:25.270Z,100.00
2023-08-03T02:06:58.339Z,100.00
2023-08-03T02:09:26.382Z,100.00
2023-08-03T02:11:54.399Z,100.00
2023-08-03T02:14:22.392Z,100.00
2023-08-03T02:16:50.447Z,100.00
2023-08-03T02:19:18.094Z,100.00
2023-08-03T02:21:45.874Z,100.00
2023-08-03T02:24:14.046Z,100.00
2023-08-03T02:26:41.595Z,100.00
2023-08-03T02:29:09.337Z,100.00
2023-08-03T02:31:37.357Z,100.00
2023-08-03T02:34:05.458Z,100.00
2023-08-03T02:36:40.053Z,100.00
2023-08-03T02:39:11.180Z,100.00
2023-08-03T02:41:43.421Z,100.00
2023-08-03T02:44:16.937Z,100.00
2023-08-03T02:46:49.436Z,100.00
2023-08-03T02:49:17.028Z,100.00
2023-08-03T02:51:45.777Z,100.00
2023-08-03T02:54:15.381Z,100.00
2023-08-03T02:56:47.166Z,100.00
2023-08-03T02:59:19.696Z,100.00
2023-08-03T03:01:48.238Z,100.00
2023-08-03T03:04:19.259Z,100.00
2023-08-03T03:06:49.297Z,100.00
2023-08-03T03:09:17.148Z,100.00
2023-08-03T03:11:48.369Z,100.00
2023-08-03T03:14:17.133Z,100.00
2023-08-03T03:16:45.049Z,100.00
2023-08-03T03:19:12.671Z,100.00
2023-08-03T03:21:42.198Z,100.00
2023-08-03T03:24:10.324Z,100.00
2023-08-03T03:26:37.857Z,100.00
2023-08-03T03:29:05.439Z,100.00
2023-08-03T03:31:34.031Z,100.00
2023-08-03T03:34:04.783Z,100.00
2023-08-03T03:36:34.452Z,100.00
2023-08-03T03:39:02.574Z,100.00
2023-08-03T03:41:30.250Z,100.00
2023-08-03T03:43:58.319Z,100.00
2023-08-03T03:46:26.459Z,100.00
2023-08-03T03:48:54.759Z,100.00
2023-08-03T03:51:22.979Z,100.00
2023-08-03T03:53:54.713Z,100.00
2023-08-03T03:56:22.671Z,100.00
2023-08-03T03:58:50.316Z,100.00
2023-08-03T04:01:18.900Z,100.00
2023-08-03T04:03:50.668Z,100.00
2023-08-03T04:06:18.927Z,100.00
2023-08-03T04:08:47.185Z,100.00
2023-08-03T04:11:15.170Z,100.00
2023-08-03T04:13:42.686Z,100.00
2023-08-03T04:16:10.353Z,100.00
2023-08-03T04:18:37.945Z,100.00
2023-08-03T04:21:05.696Z,100.00
2023-08-03T04:23:33.243Z,100.00
2023-08-03T04:26:04.480Z,100.00
2023-08-03T04:28:32.995Z,100.00
2023-08-03T04:31:00.606Z,100.00
2023-08-03T04:33:29.520Z,100.00
2023-08-03T04:36:01.353Z,100.00
2023-08-03T04:38:34.144Z,100.00
2023-08-03T04:41:04.527Z,100.00
2023-08-03T04:43:35.915Z,100.00
2023-08-03T04:46:03.890Z,100.00
2023-08-03T04:48:31.466Z,100.00
2023-08-03T04:51:02.357Z,100.00
2023-08-03T04:53:29.944Z,100.00
2023-08-03T04:55:58.047Z,100.00
2023-08-03T04:58:25.743Z,99.63
2023-08-03T05:00:53.560Z,98.72
2023-08-03T05:03:21.770Z,98.90
2023-08-03T05:05:49.344Z,98.93
2023-08-03T05:08:23.908Z,98.78
2023-08-03T05:10:52.628Z,100.00
2023-08-03T05:13:22.447Z,100.00
2023-08-03T05:15:50.081Z,100.00
2023-08-03T05:18:18.175Z,99.53
2023-08-03T05:20:45.945Z,98.32
2023-08-03T05:23:13.937Z,98.24
2023-08-03T05:25:41.859Z,97.07
2023-08-03T05:28:09.444Z,96.75
2023-08-03T05:30:37.733Z,98.31
2023-08-03T05:33:05.408Z,97.33
2023-08-03T05:35:33.060Z,95.87
2023-08-03T05:38:00.656Z,93.24
2023-08-03T05:40:28.501Z,90.97
2023-08-03T05:42:56.464Z,89.48
2023-08-03T05:45:54.471Z,87.68
2023-08-03T05:48:22.357Z,86.94
2023-08-03T05:50:52.157Z,86.80
2023-08-03T05:53:19.985Z,86.04
2023-08-03T05:55:57.645Z,85.25
2023-08-03T05:58:38.186Z,84.22
2023-08-03T06:01:06.683Z,85.34
2023-08-03T06:03:37.760Z,84.96
2023-08-03T06:06:06.325Z,84.44
2023-08-03T06:08:34.183Z,84.53
2023-08-03T06:11:05.715Z,82.93
2023-08-03T06:13:37.212Z,81.87
2023-08-03T06:16:13.174Z,82.41
2023-08-03T06:18:49.732Z,83.59
2023-08-03T06:21:18.705Z,82.58
2023-08-03T06:23:51.983Z,80.60
2023-08-03T06:26:23.138Z,80.05
2023-08-03T06:28:55.365Z,85.43
2023-08-03T06:31:36.812Z,89.37
2023-08-03T06:34:06.001Z,89.20
2023-08-03T06:36:37.000Z,89.31
2023-08-03T06:39:05.404Z,86.46
2023-08-03T06:41:33.342Z,85.46
2023-08-03T06:44:01.566Z,83.21
2023-08-03T06:46:29.501Z,82.17
2023-08-03T06:48:58.186Z,81.23
2023-08-03T06:51:26.671Z,82.77
2023-08-03T06:53:54.731Z,81.93
2023-08-03T06:56:22.638Z,81.29
2023-08-03T06:58:50.158Z,80.56
2023-08-03T07:01:18.275Z,82.06
2023-08-03T07:03:46.459Z,82.22
2023-08-03T07:06:14.524Z,78.84
2023-08-03T07:08:42.104Z,82.00
2023-08-03T07:11:09.993Z,83.13
2023-08-03T07:13:37.559Z,81.13
2023-08-03T07:16:09.994Z,82.39
2023-08-03T07:18:37.840Z,79.77
2023-08-03T07:21:06.397Z,80.25
2023-08-03T07:23:34.845Z,83.46
2023-08-03T07:26:02.605Z,84.18
2023-08-03T07:28:30.717Z,80.64
2023-08-03T07:30:58.682Z,78.60
2023-08-03T07:33:27.786Z,81.12
2023-08-03T07:35:55.799Z,78.78
2023-08-03T07:38:24.090Z,75.80
2023-08-03T07:40:52.436Z,78.20
2023-08-03T07:43:20.009Z,79.87
2023-08-03T07:48:18.949Z,78.58
2023-08-03T07:50:47.525Z,76.20
2023-08-03T07:53:16.125Z,76.83
2023-08-03T07:55:43.660Z,74.92
2023-08-03T07:58:13.437Z,74.92
2023-08-03T08:00:41.053Z,74.08
2023-08-03T08:03:08.678Z,71.54
2023-08-03T08:05:36.335Z,72.10
2023-08-03T08:08:04.311Z,72.95
2023-08-03T08:10:32.463Z,79.07
2023-08-03T08:13:00.507Z,71.89
2023-08-03T08:15:29.534Z,72.99
2023-08-03T08:17:57.653Z,75.09
2023-08-03T08:20:25.895Z,77.60
2023-08-03T08:22:54.362Z,76.50
2023-08-03T08:25:22.152Z,76.32
2023-08-03T08:27:50.320Z,71.30
2023-08-03T08:30:18.582Z,71.89
2023-08-03T08:32:46.566Z,69.55
2023-08-03T08:35:14.808Z,66.53
2023-08-03T08:37:42.433Z,68.86
2023-08-03T08:40:14.566Z,67.16
2023-08-03T08:42:42.377Z,65.28
2023-08-03T08:45:12.410Z,65.64
2023-08-03T08:47:41.374Z,65.15
2023-08-03T08:56:05.538Z,56.07
2023-08-03T09:00:44.474Z,63.20
2023-08-03T09:03:14.456Z,62.14
2023-08-03T09:08:15.647Z,66.09
2023-08-03T09:10:54.471Z,62.86
2023-08-03T09:13:36.456Z,61.61
2023-08-03T09:16:04.703Z,59.98
2023-08-03T09:18:33.692Z,56.25
2023-08-03T09:28:55.212Z,56.86
2023-08-03T09:31:29.184Z,58.09
2023-08-03T09:33:59.541Z,53.98
2023-08-03T09:44:17.725Z,49.33
2023-08-03T09:46:50.431Z,47.61
2023-08-03T09:49:18.589Z,49.07
2023-08-03T09:59:49.145Z,45.07
2023-08-03T10:02:24.521Z,48.10
2023-08-03T10:04:58.738Z,45.10
2023-08-03T10:07:37.471Z,44.06
2023-08-03T10:10:06.317Z,41.58
2023-08-03T10:12:45.420Z,40.80
2023-08-03T10:15:17.429Z,41.67
2023-08-03T10:17:47.393Z,41.28
2023-08-03T10:20:16.082Z,41.60
2023-08-03T10:23:10.044Z,39.26
2023-08-03T10:26:02.074Z,40.62
2023-08-03T10:28:39.393Z,40.11
2023-08-03T10:31:17.618Z,39.06
2023-08-03T10:33:47.765Z,38.77
2023-08-03T10:36:27.494Z,36.89
2023-08-03T10:38:56.720Z,36.86
2023-08-03T10:41:37.709Z,36.33
2023-08-03T10:44:08.528Z,40.20
2023-08-03T10:46:42.364Z,37.64
2023-08-03T10:49:20.522Z,39.20
2023-08-03T10:51:55.768Z,37.64
2023-08-03T10:54:30.444Z,40.58
2023-08-03T10:57:15.168Z,41.86
2023-08-03T10:59:47.362Z,39.69
2023-08-03T11:02:31.039Z,37.09
2023-08-03T11:05:03.780Z,36.84
2023-08-03T11:07:39.260Z,37.21
2023-08-03T11:10:12.385Z,38.24
2023-08-03T11:12:42.437Z,37.13
2023-08-03T11:15:15.485Z,36.23
2023-08-03T11:17:49.122Z,36.06
2023-08-03T11:20:16.798Z,36.86
2023-08-03T11:22:44.831Z,36.66
2023-08-03T11:25:13.433Z,35.77
2023-08-03T11:27:42.001Z,37.68
2023-08-03T11:30:10.390Z,39.92
2023-08-03T11:32:40.002Z,39.21
2023-08-03T11:35:10.901Z,38.63
2023-08-03T11:37:40.209Z,38.97
2023-08-03T11:40:10.500Z,41.24
2023-08-03T11:42:41.101Z,39.00
2023-08-03T11:45:09.399Z,38.61
2023-08-03T11:47:48.402Z,38.74
2023-08-03T11:50:22.046Z,36.14
2023-08-03T11:52:50.250Z,35.15
2023-08-03T11:55:34.006Z,34.58
2023-08-03T11:58:12.832Z,35.37
2023-08-03T12:00:43.998Z,32.14
2023-08-03T12:03:19.687Z,29.43
2023-08-03T12:06:07.369Z,29.70
2023-08-03T12:08:48.839Z,30.43
2023-08-03T12:11:18.233Z,29.69
2023-08-03T12:13:47.787Z,29.81
2023-08-03T12:16:15.754Z,28.56
2023-08-03T12:18:43.772Z,29.97
2023-08-03T12:21:11.428Z,30.62
2023-08-03T12:23:39.020Z,31.86
2023-08-03T12:26:08.996Z,32.79
2023-08-03T12:28:36.589Z,31.36
2023-08-03T12:31:04.662Z,29.46
2023-08-03T12:33:32.424Z,28.21
2023-08-03T12:36:00.134Z,29.21
2023-08-03T12:38:27.765Z,27.94
2023-08-03T12:40:55.749Z,28.37
2023-08-03T12:43:23.372Z,27.87
2023-08-03T12:45:51.039Z,30.09
2023-08-03T12:48:18.962Z,30.91
2023-08-03T12:50:46.962Z,31.82
2023-08-03T12:53:15.666Z,31.38
2023-08-03T12:55:43.713Z,29.60
2023-08-03T12:58:12.761Z,29.70
2023-08-03T13:00:40.400Z,27.64
2023-08-03T13:03:08.038Z,27.80
2023-08-03T13:05:38.616Z,28.94
2023-08-03T13:08:07.140Z,27.25
2023-08-03T13:10:35.313Z,30.21
2023-08-03T13:13:03.378Z,33.92
2023-08-03T13:15:31.641Z,34.46
2023-08-03T13:18:01.000Z,33.82
2023-08-03T13:20:29.020Z,32.28
2023-08-03T13:22:57.884Z,30.97
2023-08-03T13:25:26.258Z,32.07
2023-08-03T13:27:53.824Z,31.46
2023-08-03T13:30:21.787Z,30.41
2023-08-03T13:32:49.533Z,28.72
2023-08-03T13:35:18.016Z,26.98
2023-08-03T13:37:46.538Z,27.25
2023-08-03T13:40:15.733Z,27.69
2023-08-03T13:42:43.724Z,28.94
2023-08-03T13:45:11.812Z,29.52
2023-08-03T13:47:41.668Z,26.89
2023-08-03T13:50:10.102Z,29.54
2023-08-03T13:52:38.057Z,25.80
2023-08-03T13:55:06.164Z,25.27
2023-08-03T13:57:35.727Z,32.01
2023-08-03T14:00:05.103Z,34.12
2023-08-03T14:05:06.664Z,31.39
2023-08-03T14:22:43.784Z,24.87
2023-08-03T14:30:20.364Z,24.75
2023-08-03T14:32:49.606Z,26.82
2023-08-03T14:37:49.106Z,25.59
2023-08-03T14:40:16.818Z,24.97
2023-08-03T14:42:55.441Z,25.83
2023-08-03T14:45:35.134Z,27.89
2023-08-03T14:48:06.667Z,26.63
2023-08-03T14:50:35.653Z,27.11
2023-08-03T14:53:03.935Z,26.36
2023-08-03T14:55:32.475Z,26.69
2023-08-03T14:58:00.071Z,26.75
2023-08-03T15:00:28.233Z,27.33
2023-08-03T15:02:56.319Z,26.77
2023-08-03T15:05:24.538Z,27.51
2023-08-03T15:07:53.397Z,28.21
2023-08-03T15:10:20.973Z,26.35
2023-08-03T15:12:48.533Z,26.15
2023-08-03T15:15:17.413Z,26.21
2023-08-03T15:17:47.923Z,28.08
2023-08-03T15:20:31.654Z,28.29
2023-08-03T15:23:03.745Z,27.21
2023-08-03T15:25:32.337Z,25.17
2023-08-03T15:28:02.278Z,25.67
2023-08-03T15:30:59.209Z,25.56
2023-08-03T15:33:21.379Z,25.88
2023-08-03T15:35:49.827Z,24.68
2023-08-03T15:38:20.761Z,24.73
2023-08-03T15:41:01.795Z,27.63
2023-08-03T15:43:37.425Z,28.15
2023-08-03T15:46:12.186Z,28.10
2023-08-03T15:49:03.295Z,27.51
2023-08-03T15:51:37.125Z,27.64
2023-08-03T15:54:10.755Z,27.71
2023-08-03T15:56:43.149Z,27.56
2023-08-03T15:59:11.700Z,26.21
2023-08-03T16:01:40.012Z,27.03
2023-08-03T16:04:07.769Z,26.69
2023-08-03T16:06:35.969Z,26.63
2023-08-03T16:09:04.609Z,28.35
2023-08-03T16:11:51.543Z,26.90
2023-08-03T16:14:20.819Z,26.97
2023-08-03T16:16:50.089Z,28.05
2023-08-03T16:19:18.554Z,28.10
2023-08-03T16:21:46.176Z,27.46
2023-08-03T16:24:14.281Z,28.40
2023-08-03T16:26:42.575Z,28.97
2023-08-03T16:29:10.138Z,27.85
2023-08-03T16:31:39.143Z,28.07
2023-08-03T16:34:12.388Z,27.80
2023-08-03T16:36:42.268Z,29.15
2023-08-03T16:39:10.843Z,29.89
2023-08-03T16:41:39.125Z,29.11
2023-08-03T16:44:07.152Z,28.57
2023-08-03T16:46:34.776Z,28.11
2023-08-03T16:49:02.365Z,28.45
2023-08-03T16:51:30.350Z,28.62
2023-08-03T16:54:00.666Z,28.53
2023-08-03T16:56:28.805Z,27.87
2023-08-03T16:58:56.364Z,28.19
2023-08-03T17:01:24.419Z,29.50
2023-08-03T17:03:52.023Z,30.21
2023-08-03T17:06:20.167Z,31.02
2023-08-03T17:08:47.784Z,31.71
2023-08-03T17:11:15.524Z,32.50
2023-08-03T17:13:43.586Z,33.04
2023-08-03T17:16:11.940Z,33.81
2023-08-03T17:18:40.479Z,33.15
2023-08-03T17:21:08.384Z,32.96
2023-08-03T17:23:36.492Z,33.25
2023-08-03T17:26:04.118Z,33.91
2023-08-03T17:28:32.499Z,34.38
2023-08-03T17:31:05.081Z,36.07
2023-08-03T17:33:33.370Z,36.20
2023-08-03T17:36:09.274Z,37.31
2023-08-03T17:38:37.390Z,36.86
2023-08-03T17:41:05.103Z,37.27
2023-08-03T17:43:32.980Z,37.32
2023-08-03T17:46:08.245Z,37.37
2023-08-03T17:48:36.427Z,37.80
2023-08-03T17:51:11.208Z,38.87
2023-08-03T17:53:41.132Z,38.93
2023-08-03T17:56:10.623Z,38.83
2023-08-03T17:58:45.873Z,38.56
2023-08-03T18:01:23.972Z,38.80
2023-08-03T18:03:52.484Z,39.59
2023-08-03T18:06:25.409Z,39.76
2023-08-03T18:08:54.522Z,40.49
2023-08-03T18:11:22.655Z,40.09
2023-08-03T18:13:52.324Z,40.47
2023-08-03T18:16:20.637Z,39.99
2023-08-03T18:18:49.923Z,40.08
2023-08-03T18:21:23.633Z,40.04
2023-08-03T18:23:55.626Z,40.01
2023-08-03T18:26:25.462Z,40.11
2023-08-03T18:28:56.377Z,40.20
2023-08-03T18:31:24.579Z,40.19
2023-08-03T18:33:53.814Z,40.91
2023-08-03T18:36:22.001Z,40.88
2023-08-03T18:38:51.863Z,41.08
2023-08-03T18:41:21.564Z,40.68
2023-08-03T18:43:51.101Z,41.23
2023-08-03T18:46:21.973Z,41.37
2023-08-03T18:48:50.219Z,41.57
2023-08-03T18:51:20.286Z,41.44
2023-08-03T18:53:50.061Z,41.98
2023-08-03T18:56:18.758Z,42.18
2023-08-03T18:58:48.480Z,42.01
2023-08-03T19:01:17.680Z,41.59
2023-08-03T19:03:47.493Z,42.24
2023-08-03T19:06:17.973Z,42.59
2023-08-03T19:08:47.822Z,41.81
2023-08-03T19:11:16.735Z,42.35
2023-08-03T19:13:45.246Z,42.16
2023-08-03T19:16:13.284Z,42.72
2023-08-03T19:18:43.830Z,42.61
2023-08-03T19:21:13.203Z,42.77
2023-08-03T19:23:41.323Z,43.31
2023-08-03T19:26:11.425Z,42.74
2023-08-03T19:28:39.324Z,42.62
2023-08-03T19:31:07.541Z,43.34
2023-08-03T19:33:36.279Z,43.56
2023-08-03T19:36:04.556Z,43.19
2023-08-03T19:38:32.753Z,43.45
2023-08-03T19:41:01.024Z,43.67
2023-08-03T19:43:29.527Z,44.01
2023-08-03T19:45:57.179Z,43.94
2023-08-03T19:48:26.392Z,44.51
2023-08-03T19:59:31.640Z,44.73
2023-08-03T20:06:16.098Z,45.15
2023-08-03T20:11:14.980Z,45.65
2023-08-03T20:16:41.284Z,45.77
2023-08-03T20:21:32.157Z,46.26
2023-08-03T20:23:59.824Z,46.02
2023-08-03T20:26:35.562Z,46.29
2023-08-03T20:29:05.794Z,46.12
2023-08-03T20:31:35.138Z,46.54
2023-08-03T20:36:34.855Z,46.14
2023-08-03T20:49:06.933Z,46.11
2023-08-03T20:51:35.768Z,46.17
2023-08-03T20:56:52.054Z,46.63
2023-08-03T20:59:19.686Z,46.32
2023-08-03T21:01:47.932Z,46.56
2023-08-03T21:04:15.868Z,46.78
2023-08-03T21:06:44.796Z,46.49
2023-08-03T21:09:12.385Z,45.30
2023-08-03T21:11:40.068Z,46.06
2023-08-03T21:14:08.779Z,46.16
2023-08-03T21:16:36.934Z,46.07
2023-08-03T21:21:36.385Z,46.19
2023-08-03T21:24:09.346Z,45.53
2023-08-03T21:26:39.745Z,45.73
2023-08-03T21:29:08.265Z,45.89
2023-08-03T21:31:39.351Z,46.71
2023-08-03T21:34:08.028Z,46.59
2023-08-03T21:36:36.250Z,46.42
2023-08-03T21:39:05.107Z,46.32
2023-08-03T21:41:32.995Z,46.19
2023-08-03T21:44:01.078Z,45.48
2023-08-03T21:46:28.888Z,45.70
2023-08-03T21:48:56.919Z,46.31
2023-08-03T21:51:24.851Z,45.98
2023-08-03T21:53:52.348Z,45.47
2023-08-03T21:56:20.754Z,46.00
2023-08-03T21:58:50.313Z,45.96
2023-08-03T22:01:18.160Z,45.68
2023-08-03T22:03:46.240Z,45.69
2023-08-03T22:06:13.918Z,45.70
2023-08-03T22:08:41.497Z,46.58
2023-08-03T22:11:15.795Z,45.80
2023-08-03T22:13:45.079Z,46.48
2023-08-03T22:16:12.896Z,45.78
2023-08-03T22:18:41.463Z,46.02
2023-08-03T22:21:10.458Z,45.68
2023-08-03T22:23:39.571Z,46.29
2023-08-03T22:26:17.784Z,46.43
2023-08-03T22:28:47.058Z,46.01
2023-08-03T22:31:15.319Z,46.47
2023-08-03T22:33:43.552Z,47.02
2023-08-03T22:36:13.858Z,46.75
2023-08-03T22:38:46.161Z,46.73
2023-08-03T22:41:14.616Z,47.01
2023-08-03T22:43:42.323Z,48.24
2023-08-03T22:46:10.063Z,47.94
2023-08-03T22:48:38.137Z,47.37
2023-08-03T22:51:06.147Z,47.75
2023-08-03T22:53:33.666Z,47.52
2023-08-03T22:56:03.644Z,47.41
2023-08-03T22:58:32.945Z,48.01
2023-08-03T23:01:00.555Z,48.55
2023-08-03T23:03:29.476Z,48.55
2023-08-03T23:05:57.237Z,49.59
2023-08-03T23:08:26.121Z,51.04
2023-08-03T23:10:54.246Z,51.16
2023-08-03T23:13:23.125Z,51.41
2023-08-03T23:15:51.223Z,52.11
2023-08-03T23:18:18.773Z,52.32
2023-08-03T23:20:46.383Z,52.86
2023-08-03T23:23:14.475Z,53.35
2023-08-03T23:25:42.536Z,54.38
2023-08-03T23:28:10.850Z,54.01
2023-08-03T23:30:38.484Z,54.57
2023-08-03T23:33:06.697Z,55.33
2023-08-03T23:35:34.322Z,56.68
2023-08-03T23:38:02.338Z,56.79
2023-08-03T23:40:30.418Z,56.62
2023-08-03T23:42:58.430Z,56.71
2023-08-03T23:45:26.468Z,55.79
2023-08-03T23:47:54.962Z,57.25
2023-08-03T23:50:23.470Z,58.26
2023-08-03T23:52:51.097Z,58.95
2023-08-03T23:55:18.835Z,58.22
2023-08-03T23:57:46.927Z,62.36
